createdAt,value
2024-03-15T00:00:13.290Z,7.93
2024-03-15T00:02:41.588Z,8.68
2024-03-15T00:05:09.348Z,8.52
2024-03-15T00:07:35.693Z,8.05
2024-03-15T00:10:02.064Z,8.30
2024-03-15T00:12:28.486Z,8.80
2024-03-15T00:14:54.906Z,7.80
2024-03-15T00:17:21.312Z,8.85
2024-03-15T00:19:47.657Z,9.23
2024-03-15T00:22:14.056Z,8.95
2024-03-15T00:24:40.519Z,8.45
2024-03-15T00:27:07.077Z,9.15
2024-03-15T00:29:33.509Z,7.97
2024-03-15T00:31:59.889Z,8.10
2024-03-15T00:34:26.459Z,9.45
2024-03-15T00:36:52.790Z,8.32
2024-03-15T00:39:19.669Z,8.73
2024-03-15T00:41:45.989Z,7.50
2024-03-15T00:44:12.383Z,8.85
2024-03-15T00:46:38.716Z,8.30
2024-03-15T00:49:05.746Z,9.50
2024-03-15T00:54:07.397Z,7.97
2024-03-15T00:56:33.753Z,9.88
2024-03-15T00:59:00.055Z,8.85
2024-03-15T01:01:26.487Z,8.65
2024-03-15T01:03:53.075Z,9.45
2024-03-15T01:06:19.557Z,8.48
2024-03-15T01:08:45.917Z,9.50
2024-03-15T01:11:12.361Z,8.55
2024-03-15T01:13:38.691Z,7.95
2024-03-15T01:16:05.261Z,8.77
2024-03-15T01:18:31.647Z,8.93
2024-03-15T01:20:58.119Z,7.85
2024-03-15T01:23:24.483Z,8.63
2024-03-15T01:25:50.850Z,8.70
2024-03-15T01:28:17.417Z,7.78
2024-03-15T01:30:43.787Z,7.72
2024-03-15T01:33:10.256Z,8.25
2024-03-15T01:35:36.785Z,8.85
2024-03-15T01:38:04.427Z,8.60
2024-03-15T01:42:57.339Z,7.53
2024-03-15T01:45:23.753Z,8.18
2024-03-15T01:47:50.494Z,8.25
2024-03-15T01:50:17.066Z,7.65
2024-03-15T01:52:43.842Z,8.02
2024-03-15T01:55:10.541Z,7.97
2024-03-15T01:57:40.694Z,8.95
2024-03-15T02:00:07.820Z,8.68
2024-03-15T02:02:34.179Z,8.10
2024-03-15T02:05:01.726Z,8.60
2024-03-15T02:07:28.063Z,8.43
2024-03-15T02:09:58.755Z,9.00
2024-03-15T02:12:26.532Z,8.02
2024-03-15T02:14:52.970Z,8.18
2024-03-15T02:17:20.141Z,8.43
2024-03-15T02:19:46.507Z,9.75
2024-03-15T02:22:13.069Z,9.00
2024-03-15T02:24:40.181Z,10.52
2024-03-15T02:27:06.651Z,9.07
2024-03-15T02:29:33.112Z,8.55
2024-03-15T02:31:59.501Z,8.52
2024-03-15T02:34:25.829Z,9.10
2024-03-15T02:36:52.291Z,8.13
2024-03-15T02:39:18.707Z,8.75
2024-03-15T02:41:45.211Z,8.25
2024-03-15T02:44:11.731Z,8.90
2024-03-15T02:46:38.120Z,8.70
2024-03-15T02:49:04.766Z,8.15
2024-03-15T02:51:31.431Z,8.82
2024-03-15T02:53:57.887Z,7.95
2024-03-15T02:56:24.265Z,7.63
2024-03-15T02:58:50.601Z,8.13
2024-03-15T03:01:17.019Z,8.23
2024-03-15T03:03:43.480Z,7.93
2024-03-15T03:06:09.860Z,7.90
2024-03-15T03:08:36.268Z,8.32
2024-03-15T03:11:03.653Z,7.90
2024-03-15T03:13:30.010Z,7.93
2024-03-15T03:15:56.514Z,8.70
2024-03-15T03:18:23.040Z,8.18
2024-03-15T03:20:49.522Z,9.30
2024-03-15T03:23:15.869Z,8.52
2024-03-15T03:25:42.190Z,8.20
2024-03-15T03:28:08.601Z,7.95
2024-03-15T03:30:34.986Z,8.07
2024-03-15T03:33:01.490Z,7.82
2024-03-15T03:35:27.914Z,7.75
2024-03-15T03:37:54.321Z,7.95
2024-03-15T03:40:20.759Z,7.75
2024-03-15T03:42:47.193Z,7.10
2024-03-15T03:45:14.170Z,7.90
2024-03-15T03:47:40.627Z,8.07
2024-03-15T03:50:07.089Z,7.88
2024-03-15T03:52:33.487Z,8.13
2024-03-15T03:54:59.978Z,8.13
2024-03-15T03:57:39.204Z,6.78
2024-03-15T04:00:11.508Z,7.07
2024-03-15T04:02:37.866Z,7.35
2024-03-15T04:05:04.527Z,7.47
2024-03-15T04:07:31.676Z,7.30
2024-03-15T04:09:58.126Z,7.65
2024-03-15T04:12:24.803Z,7.15
2024-03-15T04:14:55.788Z,7.03
2024-03-15T04:17:22.620Z,7.35
2024-03-15T04:19:48.973Z,7.00
2024-03-15T04:22:15.309Z,8.38
2024-03-15T04:24:41.839Z,7.32
2024-03-15T04:27:08.253Z,7.47
2024-03-15T04:29:34.708Z,6.95
2024-03-15T04:32:01.106Z,7.65
2024-03-15T04:34:27.495Z,7.57
2024-03-15T04:36:54.168Z,6.78
2024-03-15T04:39:20.688Z,7.38
2024-03-15T04:41:47.095Z,6.80
2024-03-15T04:44:13.412Z,6.93
2024-03-15T04:46:39.783Z,7.18
2024-03-15T04:49:06.316Z,7.18
2024-03-15T04:51:32.727Z,6.88
2024-03-15T04:53:59.131Z,7.03
2024-03-15T04:56:25.618Z,7.15
2024-03-15T04:58:51.948Z,6.70
2024-03-15T05:01:18.456Z,7.72
2024-03-15T05:03:44.845Z,8.00
2024-03-15T05:06:13.649Z,7.15
2024-03-15T05:08:46.816Z,7.13
2024-03-15T05:11:15.396Z,6.20
2024-03-15T05:13:41.930Z,6.53
2024-03-15T05:16:08.563Z,6.72
2024-03-15T05:18:34.968Z,6.72
2024-03-15T05:21:01.422Z,7.32
2024-03-15T05:23:27.744Z,7.15
2024-03-15T05:25:54.147Z,6.68
2024-03-15T05:28:20.491Z,7.15
2024-03-15T05:30:46.849Z,7.38
2024-03-15T05:33:13.338Z,6.40
2024-03-15T05:35:39.781Z,6.75
2024-03-15T05:38:06.176Z,7.70
2024-03-15T05:40:32.798Z,6.57
2024-03-15T05:45:32.814Z,6.80
2024-03-15T05:47:59.222Z,7.85
2024-03-15T05:50:25.568Z,6.90
2024-03-15T05:52:51.946Z,7.68
2024-03-15T05:55:18.545Z,6.88
2024-03-15T05:57:44.890Z,7.00
2024-03-15T06:00:16.280Z,8.30
2024-03-15T06:02:43.867Z,7.50
2024-03-15T06:05:10.296Z,7.95
2024-03-15T06:07:36.629Z,8.05
2024-03-15T06:10:03.243Z,8.43
2024-03-15T06:12:29.749Z,7.90
2024-03-15T06:14:56.177Z,8.38
2024-03-15T06:17:22.514Z,8.70
2024-03-15T06:19:48.864Z,9.25
2024-03-15T06:22:15.394Z,8.52
2024-03-15T06:24:41.730Z,10.15
2024-03-15T06:27:08.107Z,10.30
2024-03-15T06:29:34.532Z,11.48
2024-03-15T06:32:02.081Z,10.68
2024-03-15T06:34:28.686Z,10.77
2024-03-15T06:36:55.527Z,13.80
2024-03-15T06:39:22.137Z,13.15
2024-03-15T06:41:48.499Z,9.38
2024-03-15T06:44:14.824Z,8.30
2024-03-15T06:46:41.181Z,8.95
2024-03-15T06:49:07.542Z,11.15
2024-03-15T06:51:34.008Z,10.63
2024-03-15T06:54:00.405Z,10.98
2024-03-15T06:56:26.998Z,10.57
2024-03-15T06:58:53.326Z,8.23
2024-03-15T07:01:19.673Z,9.27
2024-03-15T07:03:46.070Z,9.43
2024-03-15T07:06:12.569Z,9.10
2024-03-15T07:08:39.034Z,7.95
2024-03-15T07:11:05.425Z,8.18
2024-03-15T07:13:31.793Z,7.40
2024-03-15T07:15:58.293Z,6.28
2024-03-15T07:18:24.817Z,6.10
2024-03-15T07:20:51.317Z,6.53
2024-03-15T07:23:17.876Z,5.80
2024-03-15T07:25:44.329Z,5.93
2024-03-15T07:28:10.826Z,6.25
2024-03-15T07:30:37.347Z,6.10
2024-03-15T07:33:04.398Z,6.38
2024-03-15T07:35:31.028Z,6.55
2024-03-15T07:37:57.357Z,6.43
2024-03-15T07:40:23.741Z,6.22
2024-03-15T07:42:50.113Z,7.18
2024-03-15T07:45:16.645Z,8.52
2024-03-15T07:47:43.106Z,10.15
2024-03-15T07:50:09.479Z,11.57
2024-03-15T07:52:35.869Z,9.82
2024-03-15T07:55:02.264Z,9.45
2024-03-15T07:57:28.735Z,10.15
2024-03-15T07:59:55.112Z,9.18
2024-03-15T08:02:21.569Z,7.80
2024-03-15T08:04:47.962Z,8.23
2024-03-15T08:07:14.413Z,8.52
2024-03-15T08:09:40.919Z,7.60
2024-03-15T08:12:07.424Z,7.38
2024-03-15T08:14:34.369Z,6.90
2024-03-15T08:17:00.825Z,5.65
2024-03-15T08:19:27.306Z,5.15
2024-03-15T08:21:54.714Z,4.53
2024-03-15T08:24:23.036Z,4.07
2024-03-15T08:26:49.425Z,4.40
2024-03-15T08:29:15.746Z,4.40
2024-03-15T08:31:42.186Z,3.40
2024-03-15T08:34:08.643Z,4.18
2024-03-15T08:36:35.488Z,3.75
2024-03-15T08:39:01.884Z,2.70
2024-03-15T08:41:28.217Z,2.38
2024-03-15T08:43:54.604Z,2.50
2024-03-15T08:46:21.147Z,2.63
2024-03-15T08:48:47.741Z,2.88
2024-03-15T08:51:14.248Z,2.30
2024-03-15T08:53:40.628Z,2.17
2024-03-15T08:56:06.993Z,2.10
2024-03-15T08:58:33.317Z,2.30
2024-03-15T09:01:01.296Z,2.60
2024-03-15T09:03:27.825Z,2.80
2024-03-15T09:05:54.234Z,1.92
2024-03-15T09:08:20.583Z,2.28
2024-03-15T09:10:47.034Z,2.40
2024-03-15T09:13:13.414Z,2.17
2024-03-15T09:15:39.870Z,2.03
2024-03-15T09:18:06.338Z,2.15
2024-03-15T09:20:32.693Z,2.22
2024-03-15T09:22:59.182Z,2.30
2024-03-15T09:25:25.749Z,2.47
2024-03-15T09:27:52.195Z,2.42
2024-03-15T09:30:18.636Z,2.53
2024-03-15T09:32:45.649Z,2.53
2024-03-15T09:40:29.759Z,2.40
2024-03-15T09:42:56.236Z,2.60
2024-03-15T09:45:23.615Z,2.50
2024-03-15T09:47:51.041Z,2.67
2024-03-15T09:50:19.702Z,2.60
2024-03-15T09:52:46.504Z,2.60
2024-03-15T09:55:15.446Z,2.78
2024-03-15T09:57:43.020Z,2.30
2024-03-15T10:00:17.366Z,2.50
2024-03-15T10:02:44.961Z,2.60
2024-03-15T10:05:12.507Z,2.75
2024-03-15T11:07:36.356Z,2.17
2024-03-15T11:20:55.569Z,2.22
2024-03-15T14:12:35.225Z,0.93
2024-03-15T14:39:12.317Z,1.17
2024-03-15T14:41:38.655Z,1.30
2024-03-15T14:44:05.187Z,1.05
2024-03-15T14:46:31.682Z,1.10
2024-03-15T14:48:58.053Z,1.20
2024-03-15T14:51:24.517Z,1.10
2024-03-15T14:53:50.951Z,1.05
2024-03-15T14:56:17.336Z,0.90
2024-03-15T14:58:43.684Z,1.20
2024-03-15T15:01:10.126Z,1.00
2024-03-15T15:03:36.731Z,1.02
2024-03-15T15:06:03.572Z,1.13
2024-03-15T15:08:30.072Z,1.00
2024-03-15T15:10:56.439Z,1.05
2024-03-15T15:13:22.918Z,1.38
2024-03-15T15:15:49.836Z,1.30
2024-03-15T15:18:16.289Z,1.20
2024-03-15T15:20:42.784Z,1.23
2024-03-15T15:23:09.355Z,1.52
2024-03-15T15:25:35.775Z,1.40
2024-03-15T15:28:02.406Z,1.48
2024-03-15T15:30:29.023Z,1.40
2024-03-15T15:32:55.885Z,1.20
2024-03-15T15:35:22.438Z,1.65
2024-03-15T15:37:48.822Z,1.40
2024-03-15T15:40:15.529Z,1.33
2024-03-15T15:42:42.476Z,3.22
2024-03-15T15:45:09.341Z,2.00
2024-03-15T15:47:35.781Z,2.22
2024-03-15T15:50:02.219Z,1.60
2024-03-15T15:52:28.556Z,1.20
2024-03-15T15:54:55.043Z,0.98
2024-03-15T15:57:21.502Z,1.10
2024-03-15T15:59:47.863Z,1.00
2024-03-15T16:02:14.274Z,1.10
2024-03-15T16:04:40.637Z,0.80
2024-03-15T16:07:07.090Z,1.27
2024-03-15T16:09:33.698Z,1.30
2024-03-15T16:12:00.395Z,1.10
2024-03-15T16:14:26.887Z,1.30
2024-03-15T16:16:53.417Z,1.40
2024-03-15T16:19:20.630Z,1.30
2024-03-15T16:21:47.072Z,1.25
2024-03-15T16:24:13.556Z,1.27
2024-03-15T16:26:40.035Z,1.20
2024-03-15T16:29:06.656Z,1.10
2024-03-15T16:31:33.371Z,1.20
2024-03-15T16:33:59.844Z,1.30
2024-03-15T16:36:26.310Z,1.10
2024-03-15T16:38:54.674Z,1.40
2024-03-15T16:41:23.764Z,1.38
2024-03-15T16:43:50.101Z,1.20
2024-03-15T16:46:16.469Z,1.33
2024-03-15T16:48:42.886Z,1.55
2024-03-15T16:51:09.389Z,1.40
2024-03-15T16:53:37.111Z,1.38
2024-03-15T16:56:03.659Z,1.60
2024-03-15T16:58:29.988Z,1.30
2024-03-15T17:00:56.502Z,1.25
2024-03-15T17:03:23.022Z,1.40
2024-03-15T17:05:49.457Z,2.28
2024-03-15T17:08:15.804Z,1.45
2024-03-15T17:10:42.301Z,1.35
2024-03-15T17:13:08.808Z,1.77
2024-03-15T17:15:35.298Z,1.80
2024-03-15T17:18:01.962Z,1.67
2024-03-15T17:20:28.337Z,1.50
2024-03-15T17:22:54.719Z,1.85
2024-03-15T17:25:21.095Z,1.70
2024-03-15T17:27:47.547Z,1.70
2024-03-15T17:30:13.977Z,1.75
2024-03-15T17:32:40.354Z,1.90
2024-03-15T17:35:06.894Z,2.13
2024-03-15T17:37:33.247Z,2.10
2024-03-15T17:39:59.628Z,2.10
2024-03-15T17:42:26.104Z,2.05
2024-03-15T17:44:52.546Z,2.15
2024-03-15T17:47:18.877Z,2.33
2024-03-15T17:49:45.213Z,2.20
2024-03-15T17:52:11.919Z,1.83
2024-03-15T17:54:38.366Z,2.10
2024-03-15T17:57:05.026Z,2.47
2024-03-15T17:59:31.376Z,2.63
2024-03-15T18:01:57.707Z,2.72
2024-03-15T18:04:24.062Z,3.13
2024-03-15T18:06:50.526Z,3.08
2024-03-15T18:09:17.017Z,3.30
2024-03-15T18:11:43.380Z,3.60
2024-03-15T18:14:09.750Z,4.75
2024-03-15T18:16:36.153Z,7.90
2024-03-15T18:19:02.842Z,8.52
2024-03-15T18:21:29.384Z,8.05
2024-03-15T18:23:55.819Z,7.65
2024-03-15T18:26:22.201Z,8.40
2024-03-15T18:28:48.565Z,8.05
2024-03-15T18:31:14.994Z,7.60
2024-03-15T18:33:41.433Z,7.65
2024-03-15T18:36:08.055Z,7.88
2024-03-15T18:38:34.572Z,7.47
2024-03-15T18:41:01.034Z,7.72
2024-03-15T18:43:27.417Z,7.70
2024-03-15T18:45:53.794Z,8.30
2024-03-15T18:48:20.525Z,9.07
2024-03-15T18:50:46.951Z,8.73
2024-03-15T18:53:13.661Z,8.07
2024-03-15T18:55:40.327Z,8.98
2024-03-15T18:58:06.698Z,9.13
2024-03-15T19:00:33.128Z,10.70
2024-03-15T19:02:59.508Z,11.85
2024-03-15T19:05:25.920Z,11.05
2024-03-15T19:07:52.281Z,10.38
2024-03-15T19:10:19.012Z,9.27
2024-03-15T19:12:45.471Z,9.02
2024-03-15T19:15:11.868Z,10.20
2024-03-15T19:17:39.379Z,10.43
2024-03-15T19:20:06.253Z,12.23
2024-03-15T19:22:33.464Z,12.07
2024-03-15T19:24:59.874Z,12.10
2024-03-15T19:27:26.286Z,11.30
2024-03-15T19:29:52.760Z,11.23
2024-03-15T19:32:19.206Z,11.80
2024-03-15T19:37:20.763Z,12.02
2024-03-15T19:42:14.911Z,11.18
2024-03-15T19:44:41.298Z,10.90
2024-03-15T19:47:07.887Z,10.15
2024-03-15T19:49:38.116Z,10.05
2024-03-15T19:52:05.053Z,10.43
2024-03-15T19:54:31.796Z,9.43
2024-03-15T20:04:57.325Z,8.20
2024-03-15T20:07:23.708Z,6.65
2024-03-15T20:09:50.204Z,7.13
2024-03-15T20:12:16.648Z,7.07
2024-03-15T20:14:43.192Z,8.10
2024-03-15T20:17:09.596Z,7.70
2024-03-15T20:19:35.982Z,7.07
2024-03-15T20:22:02.672Z,7.70
2024-03-15T20:24:29.674Z,9.18
2024-03-15T20:26:56.115Z,8.15
2024-03-15T20:29:22.717Z,8.50
2024-03-15T20:31:49.073Z,8.93
2024-03-15T20:34:15.449Z,8.02
2024-03-15T20:36:41.951Z,7.85
2024-03-15T20:39:08.439Z,8.45
2024-03-15T20:41:34.840Z,7.28
2024-03-15T20:44:01.394Z,6.70
2024-03-15T20:46:27.831Z,6.53
2024-03-15T20:48:54.329Z,7.07
2024-03-15T20:51:20.797Z,7.18
2024-03-15T20:53:47.154Z,7.15
2024-03-15T20:56:13.505Z,7.25
2024-03-15T20:58:39.892Z,7.43
2024-03-15T21:01:06.394Z,6.80
2024-03-15T21:03:33.226Z,6.30
2024-03-15T21:11:16.340Z,6.05
2024-03-15T21:13:42.754Z,6.45
2024-03-15T21:16:09.320Z,5.50
2024-03-15T21:18:35.767Z,5.72
2024-03-15T21:21:02.220Z,5.78
2024-03-15T21:23:28.602Z,5.30
2024-03-15T21:31:18.317Z,5.25
2024-03-15T22:05:27.380Z,3.80
2024-03-15T22:13:07.909Z,4.20
2024-03-15T22:15:34.300Z,4.57
2024-03-15T22:18:00.813Z,3.95
2024-03-15T22:23:07.329Z,4.28
2024-03-15T22:25:33.732Z,3.97
2024-03-15T22:28:00.266Z,4.75
2024-03-15T22:30:26.670Z,5.70
2024-03-15T22:32:53.113Z,4.97
2024-03-15T22:35:19.554Z,6.03
2024-03-15T22:37:45.965Z,5.63
2024-03-15T22:40:12.552Z,5.30
2024-03-15T22:42:38.962Z,5.32
2024-03-15T22:45:05.677Z,5.65
2024-03-15T22:47:32.027Z,5.70
2024-03-15T22:49:58.380Z,5.75
2024-03-15T22:52:24.881Z,4.90
2024-03-15T22:54:51.241Z,4.97
2024-03-15T22:57:17.678Z,4.90
2024-03-15T22:59:44.043Z,4.45
2024-03-15T23:02:10.412Z,4.38
2024-03-15T23:04:36.792Z,4.70
2024-03-15T23:07:03.830Z,4.00
2024-03-15T23:09:30.492Z,4.50
2024-03-15T23:11:57.266Z,3.50
2024-03-15T23:14:23.892Z,3.75
2024-03-15T23:16:50.405Z,2.90
2024-03-15T23:19:16.936Z,2.35
2024-03-15T23:21:43.354Z,2.20
2024-03-15T23:24:09.800Z,2.13
2024-03-15T23:26:36.476Z,2.40
2024-03-15T23:29:03.029Z,2.40
2024-03-15T23:31:29.373Z,2.40
2024-03-15T23:33:55.818Z,1.88
2024-03-15T23:36:22.215Z,2.00
2024-03-15T23:38:48.720Z,2.63
2024-03-15T23:41:15.057Z,2.67
2024-03-15T23:43:41.438Z,2.15
2024-03-15T23:46:07.861Z,2.30
2024-03-15T23:48:34.357Z,3.70
2024-03-15T23:51:00.767Z,3.83
2024-03-15T23:53:28.026Z,4.00
2024-03-15T23:55:54.510Z,4.35
2024-03-15T23:58:21.648Z,3.90
